createdAt,value
2022-10-06T00:00:50.695Z,33.31
2022-10-06T00:01:50.773Z,26.20
2022-10-06T00:02:50.759Z,26.71
2022-10-06T00:03:50.688Z,25.79
2022-10-06T00:04:50.658Z,26.81
2022-10-06T00:05:50.640Z,23.16
2022-10-06T00:06:50.633Z,22.24
2022-10-06T00:07:50.626Z,15.84
2022-10-06T00:08:50.611Z,15.33
2022-10-06T00:09:50.600Z,17.17
2022-10-06T00:10:50.589Z,16.05
2022-10-06T00:11:50.579Z,12.60
2022-10-06T00:12:50.593Z,15.44
2022-10-06T00:13:50.557Z,17.98
2022-10-06T00:14:50.547Z,15.03
2022-10-06T00:15:50.657Z,15.64
2022-10-06T00:16:50.525Z,14.73
2022-10-06T00:17:50.513Z,10.67
2022-10-06T00:18:50.509Z,9.95
2022-10-06T00:19:50.498Z,12.90
2022-10-06T00:20:50.484Z,9.85
2022-10-06T00:21:50.471Z,8.03
2022-10-06T00:22:50.464Z,5.38
2022-10-06T00:23:50.450Z,2.33
2022-10-06T00:24:50.440Z,3.45
2022-10-06T00:25:50.428Z,4.88
2022-10-06T00:26:50.420Z,8.03
2022-10-06T00:27:50.411Z,4.77
2022-10-06T00:28:50.558Z,3.45
2022-10-06T00:29:50.385Z,2.95
2022-10-06T00:30:50.474Z,2.13
2022-10-06T00:31:50.371Z,2.13
2022-10-06T00:32:50.356Z,2.54
2022-10-06T00:33:50.344Z,2.64
2022-10-06T00:34:50.333Z,1.01
2022-10-06T00:35:50.320Z,0.60
2022-10-06T00:36:50.310Z,1.21
2022-10-06T00:37:50.297Z,0.00
2022-10-06T00:38:50.291Z,0.00
2022-10-06T00:39:50.278Z,0.00
2022-10-06T00:40:50.266Z,0.00
2022-10-06T00:41:50.260Z,0.00
2022-10-06T00:42:50.245Z,0.00
2022-10-06T00:43:50.238Z,0.00
2022-10-06T00:44:50.245Z,0.00
2022-10-06T00:45:50.329Z,0.00
2022-10-06T00:46:50.204Z,0.00
2022-10-06T00:47:50.186Z,0.00
2022-10-06T00:48:50.178Z,0.00
2022-10-06T00:49:50.164Z,0.00
2022-10-06T00:50:50.157Z,0.00
2022-10-06T00:51:50.144Z,0.00
2022-10-06T00:52:50.136Z,0.00
2022-10-06T00:53:50.120Z,0.00
2022-10-06T00:54:50.114Z,0.00
2022-10-06T00:55:50.098Z,0.00
2022-10-06T00:56:50.093Z,0.00
2022-10-06T00:57:50.082Z,0.00
2022-10-06T00:58:50.068Z,0.00
2022-10-06T00:59:50.055Z,0.00
2022-10-06T01:00:50.069Z,0.00
2022-10-06T01:01:50.111Z,0.00
2022-10-06T01:02:50.180Z,0.00
2022-10-06T01:03:50.014Z,0.00
2022-10-06T01:04:50.000Z,0.00
2022-10-06T01:05:49.990Z,0.00
2022-10-06T01:06:49.986Z,0.00
2022-10-06T01:07:49.966Z,0.00
2022-10-06T01:08:49.956Z,0.00
2022-10-06T01:09:49.943Z,0.00
2022-10-06T01:10:49.935Z,0.00
2022-10-06T01:11:49.925Z,0.00
2022-10-06T01:12:49.912Z,0.00
2022-10-06T01:13:49.899Z,0.00
2022-10-06T01:14:49.892Z,1.73
2022-10-06T01:15:49.940Z,3.86
2022-10-06T01:16:49.890Z,2.34
2022-10-06T01:17:49.854Z,6.71
2022-10-06T01:18:49.844Z,4.16
2022-10-06T01:19:49.832Z,9.35
2022-10-06T01:20:49.822Z,8.33
2022-10-06T01:21:49.809Z,4.88
2022-10-06T01:22:49.799Z,9.45
2022-10-06T01:23:49.788Z,7.72
2022-10-06T01:24:49.780Z,5.69
2022-10-06T01:25:49.768Z,7.32
2022-10-06T01:26:49.760Z,5.18
2022-10-06T01:27:49.745Z,7.93
2022-10-06T01:28:49.787Z,10.37
2022-10-06T01:29:49.722Z,11.49
2022-10-06T01:30:49.769Z,11.89
2022-10-06T01:31:49.699Z,11.18
2022-10-06T01:32:49.712Z,12.41
2022-10-06T01:33:49.677Z,11.89
2022-10-06T01:34:49.665Z,11.49
2022-10-06T01:35:49.654Z,10.17
2022-10-06T01:36:49.645Z,11.80
2022-10-06T01:37:49.634Z,13.12
2022-10-06T01:38:49.621Z,13.73
2022-10-06T01:39:49.612Z,13.62
2022-10-06T01:40:49.600Z,13.42
2022-10-06T01:41:49.591Z,12.30
2022-10-06T01:42:49.582Z,13.22
2022-10-06T01:43:49.565Z,16.27
2022-10-06T01:44:49.555Z,13.93
2022-10-06T01:45:49.544Z,12.10
2022-10-06T01:46:49.593Z,11.19
2022-10-06T01:47:49.522Z,10.88
2022-10-06T01:48:49.532Z,12.61
2022-10-06T01:49:49.498Z,12.30
2022-10-06T01:50:49.491Z,11.39
2022-10-06T01:51:49.477Z,10.38
2022-10-06T01:52:49.468Z,9.56
2022-10-06T01:53:49.454Z,10.48
2022-10-06T01:54:49.447Z,11.70
2022-10-06T01:55:49.431Z,10.78
2022-10-06T01:56:49.422Z,9.66
2022-10-06T01:57:49.411Z,9.66
2022-10-06T01:58:49.401Z,11.49
2022-10-06T01:59:54.407Z,11.60
2022-10-06T02:00:49.379Z,11.90
2022-10-06T02:01:49.426Z,13.12
2022-10-06T02:02:49.358Z,12.41
2022-10-06T02:03:49.344Z,10.78
2022-10-06T02:04:49.358Z,10.78
2022-10-06T02:05:49.330Z,11.09
2022-10-06T02:06:49.311Z,11.60
2022-10-06T02:07:49.301Z,11.90
2022-10-06T02:08:49.291Z,11.90
2022-10-06T02:09:49.278Z,11.80
2022-10-06T02:10:49.268Z,10.58
2022-10-06T02:11:49.256Z,9.66
2022-10-06T02:12:49.247Z,10.88
2022-10-06T02:13:49.233Z,9.46
2022-10-06T02:14:49.225Z,8.44
2022-10-06T02:15:49.284Z,7.53
2022-10-06T02:16:49.202Z,6.62
2022-10-06T02:17:49.191Z,6.41
2022-10-06T02:18:49.187Z,3.97
2022-10-06T02:19:49.167Z,4.38
2022-10-06T02:20:49.179Z,2.75
2022-10-06T02:21:49.145Z,2.14
2022-10-06T02:22:49.138Z,2.75
2022-10-06T02:23:49.123Z,2.75
2022-10-06T02:24:49.122Z,2.24
2022-10-06T02:25:49.102Z,3.26
2022-10-06T02:26:49.090Z,3.26
2022-10-06T02:27:49.079Z,2.03
2022-10-06T02:28:49.086Z,1.12
2022-10-06T02:29:49.060Z,1.83
2022-10-06T02:30:49.101Z,1.32
2022-10-06T02:31:49.036Z,2.34
2022-10-06T02:32:49.025Z,2.95
2022-10-06T02:33:49.014Z,1.42
2022-10-06T02:34:49.003Z,0.00
2022-10-06T02:35:48.990Z,0.20
2022-10-06T02:36:49.019Z,0.00
2022-10-06T02:37:48.971Z,0.31
2022-10-06T02:38:48.962Z,0.71
2022-10-06T02:39:48.945Z,0.00
2022-10-06T02:40:48.941Z,1.01
2022-10-06T02:41:48.925Z,0.00
2022-10-06T02:42:48.925Z,0.10
2022-10-06T02:43:48.909Z,0.40
2022-10-06T02:44:48.895Z,0.00
2022-10-06T02:45:48.882Z,0.00
2022-10-06T02:46:48.919Z,0.00
2022-10-06T02:47:48.861Z,0.00
2022-10-06T02:48:48.852Z,0.00
2022-10-06T02:49:48.838Z,0.00
2022-10-06T02:50:48.826Z,0.61
2022-10-06T02:51:48.814Z,0.71
2022-10-06T02:52:48.829Z,2.03
2022-10-06T02:53:48.793Z,1.63
2022-10-06T02:54:48.782Z,1.32
2022-10-06T02:55:48.771Z,0.00
2022-10-06T02:56:48.763Z,0.00
2022-10-06T02:57:48.748Z,0.00
2022-10-06T02:58:48.738Z,0.00
2022-10-06T02:59:48.726Z,0.00
2022-10-06T03:00:48.716Z,0.40
2022-10-06T03:01:48.845Z,0.61
2022-10-06T03:02:48.778Z,0.00
2022-10-06T03:03:48.681Z,0.00
2022-10-06T03:04:48.672Z,0.00
2022-10-06T03:05:48.668Z,0.00
2022-10-06T03:06:48.650Z,0.71
2022-10-06T03:07:48.636Z,0.51
2022-10-06T03:08:48.650Z,0.92
2022-10-06T03:09:48.614Z,0.00
2022-10-06T03:10:48.608Z,2.34
2022-10-06T03:11:48.601Z,4.28
2022-10-06T03:12:48.581Z,5.50
2022-10-06T03:13:48.578Z,5.09
2022-10-06T03:14:48.561Z,5.50
2022-10-06T03:15:48.597Z,4.89
2022-10-06T03:16:48.541Z,6.21
2022-10-06T03:17:48.526Z,5.50
2022-10-06T03:18:48.516Z,7.74
2022-10-06T03:19:48.503Z,7.34
2022-10-06T03:20:48.495Z,8.15
2022-10-06T03:21:48.481Z,9.78
2022-10-06T03:22:48.471Z,9.58
2022-10-06T03:23:48.460Z,10.70
2022-10-06T03:24:48.474Z,11.61
2022-10-06T03:25:48.437Z,11.61
2022-10-06T03:26:48.431Z,12.23
2022-10-06T03:27:48.415Z,11.41
2022-10-06T03:28:48.508Z,13.04
2022-10-06T03:29:48.393Z,12.73
2022-10-06T03:30:48.385Z,13.04
2022-10-06T03:31:48.541Z,14.37
2022-10-06T03:32:48.360Z,15.38
2022-10-06T03:33:48.351Z,15.69
2022-10-06T03:34:48.345Z,15.28
2022-10-06T03:35:48.325Z,14.98
2022-10-06T03:36:48.319Z,13.24
2022-10-06T03:37:48.304Z,15.38
2022-10-06T03:38:48.297Z,15.48
2022-10-06T03:39:48.282Z,17.32
2022-10-06T03:40:48.364Z,17.02
2022-10-06T03:41:48.266Z,17.63
2022-10-06T03:42:48.252Z,15.09
2022-10-06T03:43:48.240Z,15.29
2022-10-06T03:44:48.229Z,15.09
2022-10-06T03:45:48.217Z,15.39
2022-10-06T03:46:48.303Z,14.98
2022-10-06T03:47:48.193Z,16.51
2022-10-06T03:48:48.184Z,18.35
2022-10-06T03:49:48.172Z,18.35
2022-10-06T03:50:48.161Z,18.65
2022-10-06T03:51:48.150Z,19.37
2022-10-06T03:52:48.138Z,18.45
2022-10-06T03:53:48.126Z,19.17
2022-10-06T03:54:48.117Z,17.74
2022-10-06T03:55:48.108Z,17.84
2022-10-06T03:56:48.118Z,17.63
2022-10-06T03:57:48.083Z,20.18
2022-10-06T03:58:48.071Z,20.18
2022-10-06T03:59:48.059Z,20.69
2022-10-06T04:00:48.162Z,20.90
2022-10-06T04:01:48.269Z,22.32
2022-10-06T04:02:48.029Z,23.03
2022-10-06T04:03:48.028Z,21.81
2022-10-06T04:04:48.003Z,21.81
2022-10-06T04:05:47.996Z,22.63
2022-10-06T04:06:48.003Z,24.57
2022-10-06T04:07:47.973Z,24.07
2022-10-06T04:08:47.964Z,23.14
2022-10-06T04:09:47.952Z,25.60
2022-10-06T04:10:47.941Z,25.49
2022-10-06T04:11:47.927Z,24.07
2022-10-06T04:12:47.936Z,24.07
2022-10-06T04:13:47.907Z,23.56
2022-10-06T04:14:47.895Z,23.86
2022-10-06T04:15:47.883Z,23.97
2022-10-06T04:16:47.954Z,25.40
2022-10-06T04:17:47.865Z,25.70
2022-10-06T04:18:47.848Z,25.90
2022-10-06T04:19:47.840Z,28.56
2022-10-06T04:20:47.826Z,28.35
2022-10-06T04:21:47.823Z,29.99
2022-10-06T04:22:47.803Z,28.86
2022-10-06T04:23:47.795Z,29.68
2022-10-06T04:24:47.781Z,31.21
2022-10-06T04:25:50.443Z,32.23
2022-10-06T04:26:47.761Z,30.90
2022-10-06T04:27:47.764Z,33.04
2022-10-06T04:28:47.866Z,32.84
2022-10-06T04:29:47.728Z,34.58
2022-10-06T04:30:47.717Z,34.98
2022-10-06T04:31:47.733Z,36.31
2022-10-06T04:32:47.692Z,37.84
2022-10-06T04:33:47.685Z,38.64
2022-10-06T04:34:47.672Z,38.65
2022-10-06T04:35:47.664Z,37.84
2022-10-06T04:36:47.649Z,37.33
2022-10-06T04:37:47.641Z,36.71
2022-10-06T04:38:47.629Z,37.33
2022-10-06T04:39:47.618Z,36.92
2022-10-06T04:40:47.605Z,37.12
2022-10-06T04:41:47.673Z,35.49
2022-10-06T04:42:47.583Z,35.82
2022-10-06T04:43:47.569Z,34.69
2022-10-06T04:44:47.580Z,35.71
2022-10-06T04:45:47.622Z,35.92
2022-10-06T04:46:47.667Z,35.51
2022-10-06T04:47:47.527Z,35.20
2022-10-06T04:48:47.528Z,35.10
2022-10-06T04:49:47.506Z,35.92
2022-10-06T04:50:47.491Z,35.92
2022-10-06T04:51:47.482Z,35.20
2022-10-06T04:52:47.469Z,35.41
2022-10-06T04:53:47.461Z,36.12
2022-10-06T04:54:47.456Z,36.02
2022-10-06T04:55:47.438Z,35.61
2022-10-06T04:56:47.424Z,34.39
2022-10-06T04:57:47.418Z,34.08
2022-10-06T04:58:47.403Z,34.28
2022-10-06T04:59:47.394Z,34.80
2022-10-06T05:00:47.451Z,34.18
2022-10-06T05:01:47.454Z,33.87
2022-10-06T05:02:47.359Z,34.59
2022-10-06T05:03:47.351Z,35.00
2022-10-06T05:04:47.336Z,34.18
2022-10-06T05:05:47.580Z,34.20
2022-10-06T05:06:47.315Z,33.99
2022-10-06T05:07:47.307Z,32.26
2022-10-06T05:08:47.292Z,31.03
2022-10-06T05:09:47.282Z,31.65
2022-10-06T05:10:47.268Z,31.74
2022-10-06T05:11:47.258Z,33.99
2022-10-06T05:12:47.251Z,33.38
2022-10-06T05:13:47.237Z,33.07
2022-10-06T05:14:47.226Z,32.67
2022-10-06T05:15:47.214Z,32.15
2022-10-06T05:16:47.317Z,31.44
2022-10-06T05:17:47.192Z,29.10
2022-10-06T05:18:47.186Z,30.02
2022-10-06T05:19:47.173Z,30.02
2022-10-06T05:20:47.157Z,32.26
2022-10-06T05:21:47.146Z,31.13
2022-10-06T05:22:47.133Z,30.01
2022-10-06T05:23:47.124Z,30.22
2022-10-06T05:24:47.111Z,32.36
2022-10-06T05:25:47.101Z,33.69
2022-10-06T05:26:47.089Z,33.59
2022-10-06T05:27:47.078Z,35.30
2022-10-06T05:28:47.166Z,34.61
2022-10-06T05:29:47.057Z,35.32
2022-10-06T05:30:47.047Z,34.81
2022-10-06T05:31:47.121Z,33.28
2022-10-06T05:32:47.044Z,33.69
2022-10-06T05:33:47.022Z,32.67
2022-10-06T05:34:47.003Z,31.65
2022-10-06T05:35:46.990Z,32.46
2022-10-06T05:36:46.976Z,32.06
2022-10-06T05:37:46.968Z,31.95
2022-10-06T05:38:46.956Z,30.93
2022-10-06T05:39:46.945Z,31.44
2022-10-06T05:40:46.933Z,31.44
2022-10-06T05:41:46.924Z,30.52
2022-10-06T05:42:46.909Z,29.21
2022-10-06T05:43:47.227Z,27.88
2022-10-06T05:44:46.886Z,29.71
2022-10-06T05:45:46.947Z,29.19
2022-10-06T05:46:46.865Z,29.10
2022-10-06T05:47:46.855Z,26.86
2022-10-06T05:48:46.966Z,27.06
2022-10-06T05:49:46.833Z,29.91
2022-10-06T05:50:47.142Z,30.01
2022-10-06T05:51:46.812Z,32.26
2022-10-06T05:52:46.812Z,30.73
2022-10-06T05:53:46.799Z,30.01
2022-10-06T05:54:46.779Z,30.52
2022-10-06T05:55:46.770Z,29.00
2022-10-06T05:56:46.752Z,28.80
2022-10-06T05:57:46.745Z,27.88
2022-10-06T05:58:46.730Z,27.47
2022-10-06T05:59:46.722Z,26.86
2022-10-06T06:00:46.707Z,25.43
2022-10-06T06:01:46.780Z,26.35
2022-10-06T06:02:46.747Z,27.98
2022-10-06T06:03:46.677Z,27.58
2022-10-06T06:04:46.798Z,26.25
2022-10-06T06:05:46.652Z,25.23
2022-10-06T06:06:46.639Z,24.51
2022-10-06T06:07:46.632Z,23.69
2022-10-06T06:08:46.622Z,24.71
2022-10-06T06:09:46.607Z,24.30
2022-10-06T06:10:46.595Z,24.00
2022-10-06T06:11:46.588Z,22.38
2022-10-06T06:12:46.573Z,22.36
2022-10-06T06:13:46.564Z,22.48
2022-10-06T06:14:46.558Z,22.77
2022-10-06T06:15:46.546Z,21.65
2022-10-06T06:16:46.753Z,22.16
2022-10-06T06:17:46.530Z,22.88
2022-10-06T06:18:46.520Z,25.43
2022-10-06T06:19:46.494Z,25.63
2022-10-06T06:20:46.510Z,25.63
2022-10-06T06:21:46.481Z,27.98
2022-10-06T06:22:46.505Z,28.69
2022-10-06T06:23:46.458Z,29.81
2022-10-06T06:24:46.452Z,30.83
2022-10-06T06:25:46.467Z,30.52
2022-10-06T06:26:46.473Z,31.03
2022-10-06T06:27:46.534Z,30.73
2022-10-06T06:28:46.640Z,29.40
2022-10-06T06:29:46.677Z,28.69
2022-10-06T06:30:46.646Z,28.28
2022-10-06T06:31:46.618Z,27.76
2022-10-06T06:32:46.356Z,28.70
2022-10-06T06:33:46.342Z,29.40
2022-10-06T06:34:46.328Z,31.74
2022-10-06T06:35:46.320Z,32.97
2022-10-06T06:36:46.327Z,31.95
2022-10-06T06:37:46.296Z,34.40
2022-10-06T06:38:46.284Z,34.50
2022-10-06T06:39:46.277Z,34.48
2022-10-06T06:40:46.284Z,36.22
2022-10-06T06:41:46.255Z,37.85
2022-10-06T06:42:50.286Z,39.69
2022-10-06T06:43:47.255Z,39.39
2022-10-06T06:44:46.219Z,40.20
2022-10-06T06:45:46.281Z,40.80
2022-10-06T06:46:46.194Z,42.43
2022-10-06T06:47:46.185Z,42.53
2022-10-06T06:48:46.173Z,42.33
2022-10-06T06:49:46.165Z,43.35
2022-10-06T06:50:46.153Z,47.73
2022-10-06T06:51:46.161Z,47.20
2022-10-06T06:52:46.163Z,47.30
2022-10-06T06:53:46.119Z,47.61
2022-10-06T06:54:46.104Z,46.89
2022-10-06T06:55:46.103Z,47.20
2022-10-06T06:56:46.083Z,46.69
2022-10-06T06:57:46.078Z,46.38
2022-10-06T06:58:46.063Z,46.71
2022-10-06T06:59:46.053Z,44.78
2022-10-06T07:00:46.046Z,45.69
2022-10-06T07:01:46.184Z,46.81
2022-10-06T07:02:46.018Z,48.03
2022-10-06T07:03:57.233Z,46.51
2022-10-06T07:04:45.995Z,46.08
2022-10-06T07:05:45.986Z,47.71
2022-10-06T07:06:45.975Z,48.73
2022-10-06T07:07:45.964Z,48.42
2022-10-06T07:08:45.974Z,50.05
2022-10-06T07:09:45.989Z,49.65
2022-10-06T07:10:45.946Z,49.75
2022-10-06T07:11:45.945Z,49.11
2022-10-06T07:12:45.909Z,50.13
2022-10-06T07:13:46.013Z,50.84
2022-10-06T07:14:45.887Z,50.74
2022-10-06T07:15:45.903Z,52.48
2022-10-06T07:16:45.861Z,51.56
2022-10-06T07:17:45.853Z,54.39
2022-10-06T07:18:45.844Z,54.59
2022-10-06T07:19:45.832Z,54.36
2022-10-06T07:20:45.821Z,59.12
2022-10-06T07:21:45.813Z,68.21
2022-10-06T07:22:45.886Z,72.96
2022-10-06T07:23:45.809Z,72.85
2022-10-06T07:24:45.794Z,72.92
2022-10-06T07:25:45.777Z,77.01
2022-10-06T07:26:45.753Z,78.44
2022-10-06T07:27:45.745Z,81.85
2022-10-06T07:28:45.729Z,83.43
2022-10-06T07:29:45.720Z,85.42
2022-10-06T07:30:45.733Z,86.02
2022-10-06T07:31:45.757Z,85.27
2022-10-06T07:32:45.690Z,87.40
2022-10-06T07:33:45.676Z,89.63
2022-10-06T07:34:45.666Z,88.31
2022-10-06T07:35:45.654Z,89.73
2022-10-06T07:36:45.646Z,90.34
2022-10-06T07:37:45.630Z,88.57
2022-10-06T07:38:45.619Z,91.31
2022-10-06T07:39:45.608Z,91.57
2022-10-06T07:40:46.467Z,90.96
2022-10-06T07:41:46.635Z,91.42
2022-10-06T07:42:45.575Z,92.54
2022-10-06T07:43:45.566Z,93.75
2022-10-06T07:44:45.558Z,93.00
2022-10-06T07:45:45.612Z,92.65
2022-10-06T07:46:45.533Z,95.07
2022-10-06T07:47:45.531Z,94.47
2022-10-06T07:48:45.512Z,93.46
2022-10-06T07:49:45.503Z,95.18
2022-10-06T07:50:45.490Z,95.98
2022-10-06T07:51:45.484Z,96.95
2022-10-06T07:52:45.464Z,97.30
2022-10-06T07:53:45.455Z,96.09
2022-10-06T07:54:45.445Z,95.34
2022-10-06T07:55:45.436Z,95.54
2022-10-06T07:56:45.458Z,96.70
2022-10-06T07:57:45.413Z,97.21
2022-10-06T07:58:45.403Z,96.45
2022-10-06T07:59:45.392Z,96.91
2022-10-06T08:00:45.383Z,97.87
2022-10-06T08:01:45.414Z,97.06
2022-10-06T08:02:45.417Z,97.87
2022-10-06T08:03:45.347Z,98.07
2022-10-06T08:04:45.529Z,96.31
2022-10-06T08:05:45.324Z,98.53
2022-10-06T08:06:45.414Z,98.02
2022-10-06T08:07:45.305Z,98.73
2022-10-06T08:08:49.019Z,98.13
2022-10-06T08:09:46.490Z,97.78
2022-10-06T08:10:45.269Z,99.29
2022-10-06T08:11:45.260Z,99.44
2022-10-06T08:13:45.236Z,99.50
2022-10-06T08:14:45.298Z,99.80
2022-10-06T08:15:45.327Z,98.69
2022-10-06T08:16:45.206Z,99.60
2022-10-06T08:17:45.192Z,98.69
2022-10-06T08:18:46.901Z,99.55
2022-10-06T08:19:45.187Z,98.34
2022-10-06T08:20:45.163Z,98.39
2022-10-06T08:21:45.150Z,99.14
2022-10-06T08:22:45.140Z,98.90
2022-10-06T08:23:45.134Z,99.60
2022-10-06T08:25:04.773Z,98.79
2022-10-06T08:25:46.238Z,98.94
2022-10-06T08:26:45.135Z,98.94
2022-10-06T08:27:45.089Z,98.90
2022-10-06T08:28:45.174Z,98.65
2022-10-06T08:29:45.063Z,98.04
2022-10-06T08:30:45.050Z,98.54
2022-10-06T08:31:45.082Z,98.04
2022-10-06T08:32:45.030Z,98.34
2022-10-06T08:33:45.019Z,96.39
2022-10-06T08:34:45.010Z,95.13
2022-10-06T08:35:45.024Z,94.63
2022-10-06T08:37:02.212Z,97.18
2022-10-06T08:37:46.004Z,97.89
2022-10-06T08:38:44.965Z,97.94
2022-10-06T08:39:44.952Z,97.99
2022-10-06T08:40:44.942Z,98.39
2022-10-06T08:41:44.930Z,96.04
2022-10-06T08:42:45.198Z,94.63
2022-10-06T08:43:44.912Z,92.37
2022-10-06T08:44:44.928Z,88.90
2022-10-06T08:45:44.918Z,93.57
2022-10-06T08:46:45.158Z,96.48
2022-10-06T08:47:44.868Z,94.23
2022-10-06T08:48:44.856Z,93.62
2022-10-06T08:49:44.846Z,92.88
2022-10-06T08:50:44.845Z,95.03
2022-10-06T08:51:44.821Z,95.30
2022-10-06T08:52:44.811Z,86.06
2022-10-06T08:53:44.803Z,88.37
2022-10-06T08:54:44.821Z,87.77
2022-10-06T08:55:44.815Z,81.00
2022-10-06T08:56:44.771Z,81.82
2022-10-06T08:57:44.757Z,78.05
2022-10-06T08:58:44.753Z,75.58
2022-10-06T08:59:44.737Z,89.84
2022-10-06T09:00:44.763Z,92.02
2022-10-06T09:01:44.879Z,89.67
2022-10-06T09:02:44.775Z,84.99
2022-10-06T09:03:44.694Z,82.04
2022-10-06T09:04:44.687Z,78.42
2022-10-06T09:05:44.698Z,78.85
2022-10-06T09:06:44.689Z,85.64
2022-10-06T09:07:44.656Z,95.47
2022-10-06T09:08:44.642Z,96.53
2022-10-06T09:09:44.633Z,93.07
2022-10-06T09:10:44.623Z,98.24
2022-10-06T09:11:44.610Z,94.33
2022-10-06T09:12:44.601Z,95.12
2022-10-06T09:13:44.588Z,91.11
2022-10-06T09:14:44.585Z,96.23
2022-10-06T09:15:44.659Z,97.34
2022-10-06T09:16:44.591Z,90.88
2022-10-06T09:17:44.580Z,80.66
2022-10-06T09:19:06.862Z,83.31
2022-10-06T09:19:45.550Z,78.39
2022-10-06T09:20:44.514Z,84.53
2022-10-06T09:21:44.503Z,83.99
2022-10-06T09:22:44.493Z,79.29
2022-10-06T09:23:44.481Z,80.06
2022-10-06T09:24:47.401Z,76.31
2022-10-06T09:25:44.458Z,74.54
2022-10-06T09:26:44.454Z,79.96
2022-10-06T09:27:44.450Z,75.08
2022-10-06T09:28:44.821Z,72.50
2022-10-06T09:29:44.416Z,74.71
2022-10-06T09:30:44.408Z,79.57
2022-10-06T09:31:44.481Z,73.41
2022-10-06T09:32:44.408Z,74.27
2022-10-06T09:33:44.374Z,80.11
2022-10-06T09:34:44.373Z,71.97
2022-10-06T09:35:44.366Z,73.77
2022-10-06T09:36:44.349Z,69.39
2022-10-06T09:37:44.353Z,69.56
2022-10-06T09:38:44.318Z,70.56
2022-10-06T09:39:44.306Z,67.92
2022-10-06T09:40:44.299Z,61.68
2022-10-06T09:41:44.286Z,70.39
2022-10-06T09:42:44.276Z,69.82
2022-10-06T09:43:44.263Z,73.81
2022-10-06T09:44:44.256Z,80.77
2022-10-06T09:45:44.240Z,78.93
2022-10-06T09:46:44.241Z,75.11
2022-10-06T09:47:44.238Z,71.80
2022-10-06T09:48:44.245Z,75.58
2022-10-06T09:49:44.200Z,72.24
2022-10-06T09:50:44.194Z,76.45
2022-10-06T09:51:44.184Z,68.26
2022-10-06T09:52:44.169Z,74.07
2022-10-06T09:53:44.157Z,68.22
2022-10-06T09:54:44.152Z,62.72
2022-10-06T09:55:44.131Z,63.22
2022-10-06T09:56:44.125Z,61.28
2022-10-06T09:57:44.145Z,64.09
2022-10-06T09:58:44.151Z,65.62
2022-10-06T09:59:44.089Z,63.98
2022-10-06T10:00:44.123Z,66.68
2022-10-06T10:01:44.068Z,72.40
2022-10-06T10:02:44.096Z,68.55
2022-10-06T10:03:51.424Z,74.65
2022-10-06T10:04:46.358Z,73.74
2022-10-06T10:05:44.027Z,73.00
2022-10-06T10:06:44.024Z,74.08
2022-10-06T10:07:44.031Z,81.43
2022-10-06T10:08:44.035Z,79.24
2022-10-06T10:09:43.981Z,85.10
2022-10-06T10:10:43.974Z,81.33
2022-10-06T10:11:43.962Z,74.85
2022-10-06T10:12:43.952Z,67.32
2022-10-06T10:13:43.937Z,76.73
2022-10-06T10:14:43.930Z,66.78
2022-10-06T10:15:43.992Z,66.75
2022-10-06T10:16:43.905Z,62.74
2022-10-06T10:17:43.894Z,59.12
2022-10-06T10:18:43.901Z,61.88
2022-10-06T10:19:43.910Z,63.81
2022-10-06T10:20:44.051Z,60.49
2022-10-06T10:21:43.850Z,56.64
2022-10-06T10:22:43.840Z,59.20
2022-10-06T10:23:43.833Z,66.18
2022-10-06T10:24:43.823Z,64.17
2022-10-06T10:25:43.810Z,63.01
2022-10-06T10:26:43.799Z,59.72
2022-10-06T10:27:43.785Z,56.07
2022-10-06T10:28:43.857Z,58.72
2022-10-06T10:29:43.767Z,55.54
2022-10-06T10:30:43.756Z,54.59
2022-10-06T10:31:43.803Z,56.07
2022-10-06T10:32:43.735Z,57.24
2022-10-06T10:33:53.910Z,55.73
2022-10-06T10:34:43.714Z,53.11
2022-10-06T10:35:43.700Z,52.97
2022-10-06T10:36:43.715Z,51.62
2022-10-06T10:37:43.679Z,49.46
2022-10-06T10:38:43.695Z,50.00
2022-10-06T10:39:43.681Z,52.37
2022-10-06T10:40:43.653Z,52.62
2022-10-06T10:41:43.637Z,53.79
2022-10-06T10:42:43.627Z,54.19
2022-10-06T10:43:43.612Z,52.17
2022-10-06T10:44:43.603Z,51.77
2022-10-06T10:45:43.595Z,52.62
2022-10-06T10:46:43.633Z,52.92
2022-10-06T10:47:43.604Z,54.90
2022-10-06T10:48:43.561Z,54.77
2022-10-06T10:49:43.546Z,55.82
2022-10-06T10:50:43.536Z,57.28
2022-10-06T10:51:43.530Z,56.65
2022-10-06T10:52:43.540Z,56.65
2022-10-06T10:53:43.505Z,58.80
2022-10-06T10:54:43.498Z,57.97
2022-10-06T10:55:43.511Z,57.59
2022-10-06T10:56:43.476Z,58.62
2022-10-06T10:57:43.465Z,61.18
2022-10-06T10:58:43.457Z,62.21
2022-10-06T10:59:43.440Z,61.31
2022-10-06T11:00:43.457Z,61.14
2022-10-06T11:01:43.508Z,60.86
2022-10-06T11:02:43.413Z,61.97
2022-10-06T11:03:43.429Z,62.10
2022-10-06T11:04:43.698Z,66.44
2022-10-06T11:05:43.376Z,63.36
2022-10-06T11:06:43.373Z,68.18
2022-10-06T11:07:43.357Z,71.33
2022-10-06T11:08:43.369Z,66.31
2022-10-06T11:09:43.333Z,71.06
2022-10-06T11:10:43.328Z,67.98
2022-10-06T11:11:43.314Z,67.98
2022-10-06T11:12:43.302Z,68.82
2022-10-06T11:13:43.291Z,70.83
2022-10-06T11:14:43.302Z,72.61
2022-10-06T11:15:43.268Z,72.11
2022-10-06T11:16:43.265Z,71.67
2022-10-06T11:17:43.247Z,72.88
2022-10-06T11:18:43.238Z,70.36
2022-10-06T11:19:43.235Z,68.71
2022-10-06T11:20:43.219Z,70.73
2022-10-06T11:21:43.208Z,68.51
2022-10-06T11:22:43.234Z,67.14
2022-10-06T11:23:43.182Z,68.75
2022-10-06T11:24:43.209Z,68.51
2022-10-06T11:25:43.221Z,68.71
2022-10-06T11:26:43.153Z,68.71
2022-10-06T11:27:43.140Z,68.55
2022-10-06T11:28:43.279Z,67.03
2022-10-06T11:29:43.117Z,65.53
2022-10-06T11:30:43.111Z,66.63
2022-10-06T11:31:43.249Z,67.77
2022-10-06T11:32:43.087Z,68.95
2022-10-06T11:33:43.072Z,71.67
2022-10-06T11:34:43.076Z,70.73
2022-10-06T11:35:43.074Z,72.14
2022-10-06T11:36:43.044Z,67.34
2022-10-06T11:37:43.075Z,74.49
2022-10-06T11:38:43.024Z,68.18
2022-10-06T11:39:43.025Z,74.02
2022-10-06T11:40:43.027Z,73.92
2022-10-06T11:41:42.985Z,77.70
2022-10-06T11:42:42.978Z,69.96
2022-10-06T11:43:42.966Z,71.40
2022-10-06T11:44:42.955Z,74.22
2022-10-06T11:45:43.054Z,72.37
2022-10-06T11:46:45.200Z,69.18
2022-10-06T11:47:42.920Z,69.59
2022-10-06T11:48:42.912Z,72.31
2022-10-06T11:49:42.900Z,69.99
2022-10-06T11:50:42.891Z,67.27
2022-10-06T11:51:42.879Z,72.61
2022-10-06T11:52:42.868Z,71.03
2022-10-06T11:53:42.864Z,70.22
2022-10-06T11:54:42.848Z,77.04
2022-10-06T11:55:42.834Z,70.93
2022-10-06T11:56:42.878Z,70.12
2022-10-06T11:57:42.854Z,68.28
2022-10-06T11:58:43.000Z,67.00
2022-10-06T11:59:42.789Z,68.81
2022-10-06T12:00:42.782Z,68.61
2022-10-06T12:01:42.840Z,69.01
2022-10-06T12:02:42.924Z,69.99
2022-10-06T12:03:42.746Z,63.78
2022-10-06T12:04:42.738Z,64.48
2022-10-06T12:05:56.270Z,64.98
2022-10-06T12:06:43.758Z,70.62
2022-10-06T12:07:42.718Z,68.61
2022-10-06T12:08:42.725Z,68.21
2022-10-06T12:09:44.712Z,69.12
2022-10-06T12:10:42.671Z,71.23
2022-10-06T12:11:42.656Z,67.80
2022-10-06T12:12:42.674Z,65.12
2022-10-06T12:17:42.615Z,64.41
2022-10-06T12:18:42.620Z,62.70
2022-10-06T12:19:42.571Z,64.72
2022-10-06T12:20:42.562Z,64.01
2022-10-06T12:21:42.546Z,64.31
2022-10-06T12:22:42.536Z,69.55
2022-10-06T12:23:42.518Z,66.53
2022-10-06T12:24:42.514Z,71.84
2022-10-06T12:25:42.497Z,70.83
2022-10-06T12:26:42.489Z,69.32
2022-10-06T12:27:42.498Z,70.22
2022-10-06T12:28:42.600Z,64.89
2022-10-06T12:29:42.482Z,64.18
2022-10-06T12:30:42.473Z,66.22
2022-10-06T12:31:42.428Z,71.26
2022-10-06T12:32:42.417Z,65.12
2022-10-06T12:33:42.404Z,66.73
2022-10-06T12:34:42.397Z,71.87
2022-10-06T12:35:42.388Z,64.51
2022-10-06T12:36:45.122Z,69.45
2022-10-06T12:37:42.475Z,71.57
2022-10-06T12:38:42.445Z,70.26
2022-10-06T12:39:42.668Z,67.63
2022-10-06T12:40:42.329Z,69.65
2022-10-06T12:41:42.313Z,70.15
2022-10-06T12:42:42.305Z,67.54
2022-10-06T12:43:42.298Z,68.34
2022-10-06T12:44:42.353Z,63.50
2022-10-06T12:45:45.866Z,62.60
2022-10-06T12:46:42.390Z,66.02
2022-10-06T12:47:42.441Z,64.72
2022-10-06T12:48:42.262Z,64.61
2022-10-06T12:49:42.240Z,63.90
2022-10-06T12:50:42.221Z,63.60
2022-10-06T12:51:42.209Z,62.80
2022-10-06T12:52:42.192Z,65.52
2022-10-06T12:53:42.187Z,64.75
2022-10-06T12:54:42.174Z,67.33
2022-10-06T12:55:42.196Z,67.43
2022-10-06T12:56:42.404Z,73.08
2022-10-06T12:57:42.148Z,66.83
2022-10-06T12:58:42.131Z,71.77
2022-10-06T12:59:42.115Z,69.65
2022-10-06T13:00:42.124Z,70.66
2022-10-06T13:01:42.129Z,67.13
2022-10-06T13:02:42.142Z,66.73